Time;durP1;ratioP1;P1;durP2;ratioP2;P2;SDS_P1;SDS_P2;PMS_P1;PMS_P2;Temp;Humidity;BMP_temperature;BMP_pressure;BME280_temperature;BME280_humidity;BME280_pressure;Samples;Min_cycle;Max_cycle;Signal;HPM_P1;HPM_P2
2022/06/28 00:01:43;;;;;;;4.63;1.42;;;;;;;21.39;48.25;101855.22;4977822;28;20165;-65
2022/06/28 00:04:08;;;;;;;1.92;1.50;;;;;;;21.37;48.08;101850.97;4994111;28;20113;-65
2022/06/28 00:06:34;;;;;;;1.75;1.33;;;;;;;21.37;48.04;101851.84;4994214;28;20026;-65
2022/06/28 00:08:59;;;;;;;1.52;1.42;;;;;;;21.37;48.29;101851.84;4977416;28;20474;-65
2022/06/28 00:11:25;;;;;;;5.40;2.00;;;;;;;21.37;48.42;101843.66;4977648;28;20089;-65
2022/06/28 00:13:51;;;;;;;5.97;1.75;;;;;;;21.35;47.82;101845.72;4993923;28;20045;-64
2022/06/28 00:16:16;;;;;;;1.83;0.93;;;;;;;21.37;47.95;101851.84;4977628;28;20027;-64
2022/06/28 00:18:43;;;;;;;4.70;1.23;;;;;;;21.35;48.10;101848.44;4993790;28;20022;-65
2022/06/28 00:21:09;;;;;;;4.13;1.63;;;;;;;21.32;48.36;101839.75;4994895;28;20026;-65
2022/06/28 00:23:36;;;;;;;1.50;1.40;;;;;;;21.28;48.07;101839.25;4977499;28;20034;-65
2022/06/28 00:26:03;;;;;;;3.78;1.90;;;;;;;21.27;48.64;101845.72;4977360;28;20027;-65
2022/06/28 00:28:28;;;;;;;2.35;1.70;;;;;;;21.27;48.15;101840.25;4993299;28;20061;-64
2022/06/28 00:30:54;;;;;;;2.28;1.60;;;;;;;21.26;48.29;101838.59;4993742;28;20061;-64
2022/06/28 00:33:19;;;;;;;2.67;1.88;;;;;;;21.24;47.80;101839.78;4993443;28;20030;-64
2022/06/28 00:35:45;;;;;;;2.95;2.00;;;;;;;21.23;48.29;101844.38;4986645;28;20025;-64
2022/06/28 00:38:11;;;;;;;2.70;2.22;;;;;;;21.22;48.59;101837.22;4985717;28;20030;-64
2022/06/28 00:40:50;;;;;;;2.38;1.73;;;;;;;21.20;48.29;101842.00;4975865;28;20026;-64
2022/06/28 00:43:17;;;;;;;4.45;1.88;;;;;;;21.19;48.07;101842.19;4973873;28;20025;-64
2022/06/28 00:45:43;;;;;;;10.40;2.80;;;;;;;21.18;48.15;101835.88;4975062;28;20031;-65
2022/06/28 00:48:11;;;;;;;3.50;2.25;;;;;;;21.17;47.80;101841.47;4973682;28;20034;-65
2022/06/28 00:50:37;;;;;;;4.45;2.78;;;;;;;21.18;48.64;101841.31;4973761;28;20058;-65
2022/06/28 00:53:06;;;;;;;4.35;3.13;;;;;;;21.19;48.69;101845.72;4973825;28;20027;-65
2022/06/28 00:55:32;;;;;;;4.63;2.67;;;;;;;21.17;48.98;101834.16;4957516;28;20038;-66
2022/06/28 00:57:57;;;;;;;3.60;2.83;;;;;;;21.26;49.06;101849.47;4957623;28;20022;-65
2022/06/28 01:00:23;;;;;;;9.25;3.25;;;;;;;21.28;48.55;101836.53;4973664;28;20469;-65
2022/06/28 01:02:49;;;;;;;4.85;3.08;;;;;;;21.34;48.38;101843.16;4975994;28;20030;-65
2022/06/28 01:05:14;;;;;;;5.10;3.22;;;;;;;21.36;48.74;101844.69;4993076;28;20038;-65
2022/06/28 01:07:40;;;;;;;6.75;4.07;;;;;;;21.38;48.95;101837.16;4976614;28;20078;-65
2022/06/28 01:10:06;;;;;;;4.75;3.05;;;;;;;21.44;48.25;101851.97;4992898;28;20042;-65
2022/06/28 01:12:31;;;;;;;3.83;3.05;;;;;;;21.46;49.00;101853.53;4992886;28;20499;-65
2022/06/28 01:14:57;;;;;;;3.88;2.45;;;;;;;21.48;48.78;101854.19;4994062;28;20022;-65
2022/06/28 01:17:22;;;;;;;5.30;3.67;;;;;;;21.54;48.77;101870.88;4992881;28;20030;-65
2022/06/28 01:19:48;;;;;;;3.95;2.83;;;;;;;21.56;48.60;101863.38;4992881;28;20397;-65
2022/06/28 01:22:13;;;;;;;4.68;2.83;;;;;;;21.58;49.09;101853.97;4993939;28;20077;-64
2022/06/28 01:24:39;;;;;;;4.25;2.90;;;;;;;21.59;48.99;101861.13;4992792;28;20391;-65
2022/06/28 01:27:04;;;;;;;6.03;2.80;;;;;;;21.64;49.25;101863.31;4992870;28;20025;-65
2022/06/28 01:29:30;;;;;;;6.32;2.97;;;;;;;21.64;48.96;101857.88;4992699;28;20032;-65
2022/06/28 01:31:55;;;;;;;3.42;2.53;;;;;;;21.65;48.44;101865.91;4992725;28;20023;-64
2022/06/28 01:34:22;;;;;;;8.88;2.22;;;;;;;21.64;48.29;101863.31;4976433;28;20026;-65
2022/06/28 01:36:47;;;;;;;6.82;2.78;;;;;;;21.64;49.19;101863.31;4992732;28;20105;-65
2022/06/28 01:39:13;;;;;;;6.03;2.97;;;;;;;21.62;48.65;101859.94;4974104;28;20527;-65
2022/06/28 01:41:38;;;;;;;5.53;2.15;;;;;;;21.59;48.58;101860.28;4977410;28;20161;-65
2022/06/28 01:44:06;;;;;;;6.63;3.08;;;;;;;21.56;48.69;101860.63;4977220;28;20036;-65
2022/06/28 01:46:37;;;;;;;4.00;2.40;;;;;;;21.56;48.76;101863.38;4977228;28;20023;-64
2022/06/28 01:49:03;;;;;;;5.30;2.70;;;;;;;21.55;48.55;101867.13;4960847;28;20043;-65
2022/06/28 01:51:29;;;;;;;6.53;3.03;;;;;;;21.52;48.61;101864.75;4977099;28;20023;-65
2022/06/28 01:53:54;;;;;;;4.20;2.50;;;;;;;21.50;48.71;101866.81;4960857;28;20023;-65
2022/06/28 01:56:20;;;;;;;3.22;2.25;;;;;;;21.47;49.11;101863.38;4960832;28;20135;-64
2022/06/28 01:58:45;;;;;;;3.72;2.75;;;;;;;21.46;48.50;101867.16;4960845;28;20026;-65
2022/06/28 02:01:11;;;;;;;3.47;2.72;;;;;;;21.44;48.58;101863.75;4977011;28;20030;-65
2022/06/28 02:03:36;;;;;;;5.93;2.63;;;;;;;21.43;48.88;101870.22;4976960;28;20033;-65
2022/06/28 02:06:02;;;;;;;4.53;2.70;;;;;;;21.44;48.61;101876.50;4978076;28;20386;-65
2022/06/28 02:08:27;;;;;;;9.60;3.13;;;;;;;21.42;48.95;101876.69;4976624;28;20126;-65
2022/06/28 02:10:56;;;;;;;4.10;2.30;;;;;;;21.42;49.01;101876.69;4976804;28;20432;-66
2022/06/28 02:13:23;;;;;;;4.18;2.45;;;;;;;21.41;48.80;101874.16;4961046;28;20054;-65
2022/06/28 02:15:48;;;;;;;5.20;2.53;;;;;;;21.45;49.37;101876.34;4976530;28;20097;-65
2022/06/28 02:18:14;;;;;;;7.65;2.90;;;;;;;21.42;48.41;101873.97;4960488;28;20135;-64
2022/06/28 02:20:39;;;;;;;4.05;2.30;;;;;;;21.44;48.86;101880.09;4976610;28;20054;-65
2022/06/28 02:23:05;;;;;;;4.07;2.40;;;;;;;21.43;48.17;101881.13;4977620;28;20050;-66
2022/06/28 02:25:30;;;;;;;4.47;2.63;;;;;;;21.42;49.14;101876.69;4976456;28;20078;-65
2022/06/28 02:27:56;;;;;;;6.78;3.05;;;;;;;21.43;48.59;101883.88;4976423;28;20046;-65
2022/06/28 02:30:21;;;;;;;3.65;2.13;;;;;;;21.41;48.58;101891.34;4976546;28;20105;-65
2022/06/28 02:32:47;;;;;;;4.80;2.50;;;;;;;21.40;48.07;101891.53;4977592;28;20058;-65
2022/06/28 02:40:40;;;;;;;6.20;2.00;;;;;;;21.27;48.79;101893.94;4976334;28;20169;-65
2022/06/28 02:43:05;;;;;;;3.08;2.20;;;;;;;21.21;48.38;101900.09;4976057;28;20022;-65
2022/06/28 02:45:33;;;;;;;4.32;2.15;;;;;;;21.19;48.04;101902.97;4959777;28;20027;-65
2022/06/28 02:47:58;;;;;;;2.55;1.70;;;;;;;21.15;48.03;101912.53;4976053;28;20495;-65
2022/06/28 02:50:24;;;;;;;6.95;2.10;;;;;;;21.13;48.94;101913.72;4975875;28;20027;-66
2022/06/28 02:52:50;;;;;;;3.42;2.00;;;;;;;21.11;48.34;101904.84;4977194;28;20036;-65
2022/06/28 02:55:15;;;;;;;5.03;2.50;;;;;;;21.07;48.86;101920.72;4959732;28;20022;-66
2022/06/28 02:57:41;;;;;;;5.68;2.05;;;;;;;21.05;48.24;101922.69;4975856;28;20034;-65
2022/06/28 03:00:10;;;;;;;3.65;1.50;;;;;;;21.00;48.69;101919.63;4976920;28;20018;-65
2022/06/28 03:02:36;;;;;;;4.90;1.85;;;;;;;20.95;48.38;101922.03;4975813;28;20388;-65
2022/06/28 03:05:03;;;;;;;10.73;2.28;;;;;;;20.92;48.65;101927.81;4959472;28;20031;-64
2022/06/28 03:07:28;;;;;;;3.13;1.73;;;;;;;20.87;48.19;101932.94;4975571;28;20051;-65
2022/06/28 03:09:54;;;;;;;2.42;1.70;;;;;;;20.88;48.34;101940.09;4976858;28;20381;-65
2022/06/28 03:12:19;;;;;;;4.60;1.70;;;;;;;20.82;48.42;101932.59;4975594;28;20031;-65
2022/06/28 03:14:44;;;;;;;3.53;1.80;;;;;;;20.82;48.22;101938.03;4975394;28;20037;-65
2022/06/28 03:17:10;;;;;;;3.75;2.00;;;;;;;20.78;48.72;101942.09;4975568;28;20037;-64
2022/06/28 03:19:35;;;;;;;5.45;1.40;;;;;;;20.75;48.61;101947.88;4976625;28;20022;-65
2022/06/28 03:22:01;;;;;;;6.28;2.22;;;;;;;20.72;48.75;101942.75;4975479;28;20027;-65
2022/06/28 03:24:26;;;;;;;2.80;1.73;;;;;;;20.72;48.29;101953.66;4959119;28;20034;-65
2022/06/28 03:26:51;;;;;;;3.42;2.33;;;;;;;20.67;47.54;101956.91;4976488;28;20038;-65
2022/06/28 03:29:17;;;;;;;7.88;1.40;;;;;;;20.63;48.03;101960.13;4976454;28;20106;-65
2022/06/28 03:31:42;;;;;;;5.57;2.15;;;;;;;20.61;47.97;101967.59;4976452;28;20031;-65
2022/06/28 03:34:08;;;;;;;8.02;1.85;;;;;;;20.60;48.68;101968.63;4959010;28;20492;-65
2022/06/28 03:36:33;;;;;;;2.00;1.38;;;;;;;20.57;47.80;101968.97;4976359;28;20512;-64
2022/06/28 03:38:59;;;;;;;2.30;1.55;;;;;;;20.55;48.30;101965.53;4976292;28;20049;-65
2022/06/28 03:41:24;;;;;;;2.70;1.83;;;;;;;20.54;48.62;101974.72;4976267;28;20476;-65
2022/06/28 03:43:50;;;;;;;5.53;1.55;;;;;;;20.52;48.65;101974.06;4976200;28;20473;-65
2022/06/28 03:46:16;;;;;;;3.33;1.80;;;;;;;20.50;48.37;101978.78;4976214;28;20089;-65
2022/06/28 03:48:41;;;;;;;3.90;1.63;;;;;;;20.46;48.52;101974.72;4975893;28;20027;-65
2022/06/28 03:51:06;;;;;;;4.97;1.30;;;;;;;20.42;47.73;101967.88;4976079;28;20030;-64
2022/06/28 03:53:32;;;;;;;6.38;1.63;;;;;;;20.42;48.11;101976.06;4971287;28;20493;-64
2022/06/28 03:55:57;;;;;;;4.72;1.60;;;;;;;20.38;48.29;101971.97;4960161;28;20384;-66
2022/06/28 03:58:22;;;;;;;1.83;1.30;;;;;;;20.40;48.36;101972.66;4965229;28;20105;-64
2022/06/28 04:00:48;;;;;;;3.85;1.55;;;;;;;20.37;48.49;101979.28;4960587;28;20030;-65
2022/06/28 04:03:13;;;;;;;4.38;1.45;;;;;;;20.40;48.51;101975.38;4973213;28;20504;-65
2022/06/28 04:05:39;;;;;;;2.70;1.92;;;;;;;20.40;48.46;101986.25;4969780;28;20026;-64
2022/06/28 04:08:04;;;;;;;2.40;1.40;;;;;;;20.40;48.75;101983.53;4986385;28;20054;-64
2022/06/28 04:10:30;;;;;;;5.38;1.83;;;;;;;20.37;48.43;101971.09;4973580;28;20042;-64
2022/06/28 04:12:55;;;;;;;2.65;1.70;;;;;;;20.44;48.41;101983.03;4974742;28;20484;-64
2022/06/28 04:15:20;;;;;;;1.35;1.20;;;;;;;20.46;48.46;101982.88;4973478;28;20467;-65
2022/06/28 04:17:46;;;;;;;4.22;1.63;;;;;;;20.46;48.11;101972.00;4973425;28;20023;-65
2022/06/28 04:20:11;;;;;;;2.30;1.50;;;;;;;20.52;48.27;101984.94;4973496;28;20101;-65
2022/06/28 04:22:37;;;;;;;7.72;1.45;;;;;;;20.55;48.14;101980.00;4974458;28;20023;-65
2022/06/28 04:25:03;;;;;;;4.50;1.35;;;;;;;20.58;48.00;101982.41;4973405;28;20081;-64
2022/06/28 04:27:28;;;;;;;6.45;1.65;;;;;;;20.67;48.23;101995.03;4973225;28;20400;-64
2022/06/28 04:29:53;;;;;;;4.78;1.27;;;;;;;20.76;48.29;101985.84;4973203;28;20034;-65
2022/06/28 04:32:19;;;;;;;1.65;1.33;;;;;;;20.85;48.38;101984.84;4957137;28;20118;-65
2022/06/28 04:34:44;;;;;;;5.80;1.45;;;;;;;20.96;48.06;101989.13;4957823;28;20397;-65
2022/06/28 04:37:09;;;;;;;1.75;1.20;;;;;;;21.07;47.93;101990.66;4974042;28;20065;-65
2022/06/28 04:39:35;;;;;;;3.10;1.15;;;;;;;21.17;48.34;101989.50;4974994;28;20428;-65
2022/06/28 04:42:02;;;;;;;4.40;1.50;;;;;;;21.33;48.49;101984.03;4973816;28;20457;-65
2022/06/28 04:44:28;;;;;;;2.40;1.67;;;;;;;21.42;48.40;101985.75;4973856;28;20051;-66
2022/06/28 04:46:53;;;;;;;4.57;1.20;;;;;;;21.57;48.07;101982.34;4957665;28;20069;-64
2022/06/28 04:49:18;;;;;;;3.75;1.30;;;;;;;21.64;48.33;101983.34;4973659;28;20018;-65
2022/06/28 04:51:44;;;;;;;6.63;1.75;;;;;;;21.83;48.01;101988.44;4957501;28;20081;-65
2022/06/28 04:54:10;;;;;;;2.53;1.27;;;;;;;21.98;48.27;101989.44;4973739;28;20492;-65
2022/06/28 04:56:35;;;;;;;5.15;2.05;;;;;;;22.12;47.74;101991.44;4973760;28;20110;-65
2022/06/28 04:59:00;;;;;;;3.35;1.83;;;;;;;22.25;47.16;101994.44;4973596;28;20387;-65
2022/06/28 05:01:26;;;;;;;6.32;3.05;;;;;;;22.38;47.43;101982.97;4957519;28;20117;-65
2022/06/28 05:03:51;;;;;;;2.47;1.30;;;;;;;22.53;47.83;101983.91;4973592;28;20073;-65
2022/06/28 05:06:16;;;;;;;3.10;1.10;;;;;;;22.70;47.72;101982.00;4973720;28;20025;-65
2022/06/28 05:08:42;;;;;;;3.72;1.48;;;;;;;22.82;47.41;101984.13;4974376;28;20181;-65
2022/06/28 05:11:07;;;;;;;8.07;1.83;;;;;;;22.95;46.32;101980.78;4973573;28;20058;-65
2022/06/28 05:13:33;;;;;;;4.50;1.65;;;;;;;23.07;46.84;101980.19;4973424;28;20130;-66
2022/06/28 05:15:59;;;;;;;3.75;1.65;;;;;;;23.18;46.34;101982.47;4973721;28;20035;-66
2022/06/28 05:18:24;;;;;;;4.53;1.35;;;;;;;23.34;46.96;101986.94;4973522;28;20035;-65
2022/06/28 05:20:49;;;;;;;3.58;1.45;;;;;;;23.46;46.45;101982.78;4957232;28;20031;-65
2022/06/28 05:23:15;;;;;;;5.55;1.75;;;;;;;23.58;46.13;101977.72;4974505;28;20018;-65
2022/06/28 05:25:40;;;;;;;4.07;1.50;;;;;;;23.70;46.01;101971.59;4973349;28;20412;-65
2022/06/28 05:28:05;;;;;;;6.18;1.35;;;;;;;23.86;46.24;101975.19;4974480;28;20027;-65
2022/06/28 05:30:31;;;;;;;8.65;2.30;;;;;;;24.01;45.92;101965.13;4974256;28;20472;-65
2022/06/28 05:32:56;;;;;;;3.55;1.00;;;;;;;24.15;45.90;101969.75;4973302;28;20034;-65
2022/06/28 05:35:21;;;;;;;2.42;1.55;;;;;;;24.27;45.38;101962.75;4974447;28;20034;-65
2022/06/28 05:37:47;;;;;;;3.92;1.70;;;;;;;24.43;45.57;101961.72;4973281;28;20109;-65
2022/06/28 05:40:12;;;;;;;2.42;1.35;;;;;;;24.55;45.46;101961.00;4973148;28;20015;-66
2022/06/28 05:42:38;;;;;;;3.08;1.90;;;;;;;24.68;44.84;101955.66;4973213;28;20026;-65
2022/06/28 05:45:04;;;;;;;6.30;1.73;;;;;;;24.83;44.90;101948.28;4973113;28;20058;-65
2022/06/28 05:47:30;;;;;;;5.95;1.30;;;;;;;24.98;44.64;101950.09;4974193;28;20126;-66
2022/06/28 05:49:55;;;;;;;4.40;1.10;;;;;;;25.11;44.65;101951.06;4957038;28;20496;-65
2022/06/28 05:52:21;;;;;;;1.85;1.33;;;;;;;25.28;44.06;101951.66;4972969;28;20027;-65
2022/06/28 05:54:46;;;;;;;1.80;0.73;;;;;;;25.39;43.81;101948.38;4972998;28;20109;-65
2022/06/28 05:57:11;;;;;;;4.60;1.02;;;;;;;25.56;43.97;101949.81;4956091;28;20045;-66
2022/06/28 05:59:37;;;;;;;3.47;1.00;;;;;;;25.74;43.22;101947.38;4973225;28;20019;-66
2022/06/28 06:02:02;;;;;;;3.70;1.15;;;;;;;25.89;43.41;101942.63;4972106;28;20477;-65
2022/06/28 06:04:28;;;;;;;1.13;1.02;;;;;;;26.05;43.19;101942.28;4955946;28;20444;-65
2022/06/28 06:06:54;;;;;;;4.18;0.80;;;;;;;26.21;43.28;101949.38;4971858;28;20049;-66
2022/06/28 06:09:19;;;;;;;2.40;1.38;;;;;;;26.35;42.29;101948.41;4972997;28;20051;-65
2022/06/28 06:11:46;;;;;;;3.25;1.27;;;;;;;26.52;42.50;101949.69;4972011;28;20040;-66
2022/06/28 06:14:11;;;;;;;5.28;1.30;;;;;;;26.67;41.57;101954.19;4972079;28;20042;-65
2022/06/28 06:16:37;;;;;;;4.78;1.17;;;;;;;26.83;41.45;101951.94;4973092;28;20035;-65
2022/06/28 06:19:02;;;;;;;5.18;0.95;;;;;;;26.97;41.29;101947.28;4971829;28;20058;-66
2022/06/28 06:21:28;;;;;;;3.92;0.98;;;;;;;27.11;41.13;101958.13;4971980;28;20374;-66
2022/06/28 06:23:53;;;;;;;5.63;1.25;;;;;;;27.22;41.12;101947.56;4955773;28;20477;-66
2022/06/28 06:26:18;;;;;;;3.15;1.10;;;;;;;27.36;41.01;101955.59;4972534;28;20400;-65
2022/06/28 06:28:44;;;;;;;9.60;1.38;;;;;;;27.50;40.09;101954.56;4975413;28;20035;-65
2022/06/28 06:31:10;;;;;;;3.13;0.70;;;;;;;27.66;39.71;101958.78;4975422;28;20555;-65
2022/06/28 06:33:35;;;;;;;6.90;1.23;;;;;;;27.80;39.33;101965.13;4976718;28;20793;-65
2022/06/28 06:36:01;;;;;;;8.13;2.15;;;;;;;27.87;38.80;101964.03;4959207;28;20035;-66
2022/06/28 06:38:27;;;;;;;3.33;0.82;;;;;;;27.94;38.78;101959.38;4976424;28;20400;-66
2022/06/28 06:40:54;;;;;;;2.97;1.02;;;;;;;28.06;38.42;101949.38;4976466;28;20023;-66
2022/06/28 06:43:20;;;;;;;9.60;1.52;;;;;;;28.21;38.43;101965.66;4976372;28;20033;-65
2022/06/28 06:45:45;;;;;;;2.63;0.63;;;;;;;28.29;38.21;101957.16;4975300;28;20022;-65
2022/06/28 06:48:11;;;;;;;6.03;1.20;;;;;;;28.43;38.17;101960.69;4976230;28;20129;-66
2022/06/28 06:50:36;;;;;;;3.20;0.80;;;;;;;28.60;37.64;101968.25;4976227;28;20108;-65
2022/06/28 06:53:02;;;;;;;2.80;1.17;;;;;;;28.78;37.28;101973.91;4975044;28;20435;-65
2022/06/28 06:55:28;;;;;;;2.22;0.93;;;;;;;28.92;37.55;101958.13;4975069;28;20026;-65
2022/06/28 06:57:54;;;;;;;3.95;0.85;;;;;;;29.07;36.96;101961.41;4975011;28;20395;-65
2022/06/28 07:00:19;;;;;;;3.58;0.90;;;;;;;29.22;37.02;101963.88;4974909;28;20023;-66
2022/06/28 07:02:44;;;;;;;5.90;0.93;;;;;;;29.40;36.42;101962.03;4974899;28;20022;-66
2022/06/28 07:05:11;;;;;;;4.28;0.90;;;;;;;29.56;35.50;101959.78;4974698;28;20542;-65
2022/06/28 07:07:36;;;;;;;2.72;0.90;;;;;;;29.67;35.96;101961.78;4958510;28;20027;-65
2022/06/28 07:10:03;;;;;;;1.75;1.05;;;;;;;29.80;35.92;101957.00;4990657;28;20051;-65
2022/06/28 07:12:29;;;;;;;3.63;0.65;;;;;;;29.96;35.00;101961.94;4975878;28;20058;-65
2022/06/28 07:14:55;;;;;;;5.88;1.65;;;;;;;30.14;35.11;101952.81;4975879;28;20027;-65
2022/06/28 07:17:20;;;;;;;2.22;0.98;;;;;;;30.33;34.97;101946.19;4974623;28;20026;-65
2022/06/28 07:19:45;;;;;;;2.97;0.70;;;;;;;30.51;34.41;101951.69;4974731;28;20038;-66
2022/06/28 07:22:11;;;;;;;1.15;0.68;;;;;;;30.67;34.16;101947.47;4958423;28;20042;-65
2022/06/28 07:24:36;;;;;;;3.47;0.80;;;;;;;30.78;33.69;101948.56;4974607;28;20030;-66
2022/06/28 07:27:02;;;;;;;7.07;1.02;;;;;;;30.86;33.79;101945.47;4958306;28;20093;-65
2022/06/28 07:29:27;;;;;;;1.17;0.55;;;;;;;31.01;33.63;101957.00;4974684;28;20037;-67
2022/06/28 07:31:52;;;;;;;7.07;0.68;;;;;;;31.17;33.50;101948.00;4974589;28;20169;-65
2022/06/28 07:34:18;;;;;;;0.60;0.35;;;;;;;31.31;33.03;101954.16;4974374;28;20109;-65
2022/06/28 07:36:43;;;;;;;5.90;0.80;;;;;;;31.47;32.69;101942.38;4975506;28;20103;-65
2022/06/28 07:39:09;;;;;;;1.17;0.43;;;;;;;31.62;32.62;101946.38;4973400;28;20110;-65
2022/06/28 07:41:35;;;;;;;1.77;0.68;;;;;;;31.73;32.24;101949.38;4974097;28;20027;-65
2022/06/28 07:44:00;;;;;;;4.95;0.50;;;;;;;31.85;31.86;101947.47;4974201;28;20658;-66
2022/06/28 07:46:25;;;;;;;0.63;0.30;;;;;;;31.98;31.40;101947.19;4974214;28;20034;-66
2022/06/28 07:48:51;;;;;;;0.75;0.40;;;;;;;32.13;31.36;101947.56;4973856;28;20031;-65
2022/06/28 07:54:01;;;;;;;1.85;0.40;;;;;;;32.30;31.05;101951.28;4975158;28;20038;-65
2022/06/28 07:56:27;;;;;;;2.70;0.32;;;;;;;32.39;31.42;101947.00;4957785;28;20023;-65
2022/06/28 07:58:52;;;;;;;1.40;0.43;;;;;;;32.49;30.78;101944.44;4975009;28;20077;-65
2022/06/28 08:01:18;;;;;;;3.35;0.45;;;;;;;32.57;31.06;101949.63;4973896;28;20499;-65
2022/06/28 08:03:44;;;;;;;2.03;0.50;;;;;;;32.63;30.86;101942.25;4973717;28;20085;-65
2022/06/28 08:06:09;;;;;;;2.20;0.55;;;;;;;32.75;30.61;101941.09;4975320;28;20027;-65
2022/06/28 08:08:34;;;;;;;1.33;0.57;;;;;;;32.84;30.70;101939.59;4957808;28;20948;-65
2022/06/28 08:11:00;;;;;;;3.90;0.40;;;;;;;32.92;30.04;101945.81;4969232;28;20035;-65
2022/06/28 08:13:26;;;;;;;1.70;0.90;;;;;;;33.02;30.14;101934.91;4946106;28;20019;-65
2022/06/28 08:15:51;;;;;;;3.47;1.20;;;;;;;33.14;30.10;101938.50;4949105;28;20392;-65
2022/06/28 08:18:17;;;;;;;1.50;0.30;;;;;;;33.24;30.26;101944.22;4954958;28;20480;-65
2022/06/28 08:20:42;;;;;;;5.30;0.40;;;;;;;33.40;29.60;101937.81;4955584;28;20031;-65
2022/06/28 08:23:08;;;;;;;3.22;0.50;;;;;;;33.53;30.29;101937.44;4955444;28;20066;-65
2022/06/28 08:25:34;;;;;;;2.78;1.08;;;;;;;33.66;29.28;101926.03;4955204;28;20114;-65
2022/06/28 08:27:59;;;;;;;2.88;0.55;;;;;;;33.79;29.24;101924.81;4954116;29;20586;-65
2022/06/28 08:30:28;;;;;;;2.22;0.65;;;;;;;33.89;29.66;101924.97;4955091;28;20035;-65
2022/06/28 08:32:54;;;;;;;0.95;0.68;;;;;;;33.93;29.90;101910.28;4953973;29;20031;-65
2022/06/28 08:35:20;;;;;;;1.25;0.73;;;;;;;34.03;29.44;101919.88;4953938;29;20070;-65
2022/06/28 08:37:46;;;;;;;12.88;1.70;;;;;;;34.08;29.78;101917.19;4953885;29;20053;-66
2022/06/28 08:40:11;;;;;;;1.58;0.60;;;;;;;34.14;29.06;101911.44;4953825;29;20027;-66
2022/06/28 08:42:40;;;;;;;6.00;1.23;;;;;;;34.24;29.67;101916.25;4953747;29;20046;-66
2022/06/28 08:45:05;;;;;;;3.47;0.70;;;;;;;34.38;29.91;101917.53;4953790;29;20058;-65
2022/06/28 08:47:35;;;;;;;3.22;0.63;;;;;;;34.54;28.70;101913.81;4953783;29;20050;-65
2022/06/28 08:50:05;;;;;;;3.55;0.57;;;;;;;34.70;29.12;101910.16;4953452;28;20062;-66
2022/06/28 08:52:34;;;;;;;1.15;0.50;;;;;;;34.81;29.01;101911.09;4937742;29;20073;-66
2022/06/28 08:55:00;;;;;;;3.33;0.57;;;;;;;34.93;29.01;101903.38;4953614;29;20412;-65
2022/06/28 08:57:26;;;;;;;2.63;1.08;;;;;;;35.07;28.48;101897.13;4953529;29;20038;-65
2022/06/28 08:59:51;;;;;;;1.50;0.65;;;;;;;35.23;28.84;101898.13;4953619;29;20022;-65
2022/06/28 09:02:17;;;;;;;3.08;0.80;;;;;;;35.36;28.15;101896.81;4953531;29;20543;-65
2022/06/28 09:04:48;;;;;;;2.13;1.00;;;;;;;35.47;28.32;101890.19;4937647;29;20113;-65
2022/06/28 09:07:14;;;;;;;8.75;0.88;;;;;;;35.51;28.02;101899.72;4953679;29;20437;-65
2022/06/28 09:09:39;;;;;;;2.88;1.08;;;;;;;35.53;28.20;101898.31;4937167;29;20062;-64
2022/06/28 09:12:05;;;;;;;1.27;0.57;;;;;;;35.56;28.19;101897.81;4954571;28;20023;-66
2022/06/28 09:14:33;;;;;;;4.07;1.17;;;;;;;35.62;28.38;101885.56;4921503;29;20122;-65
2022/06/28 09:17:17;;;;;;;3.42;0.85;;;;;;;35.74;28.32;101888.16;4937180;29;20030;-65
2022/06/28 09:19:42;;;;;;;5.07;0.82;;;;;;;35.79;28.43;101881.78;4953225;29;20366;-66
2022/06/28 09:22:07;;;;;;;2.97;1.00;;;;;;;35.83;28.36;101883.72;4937170;29;20032;-65
2022/06/28 09:24:33;;;;;;;3.05;1.00;;;;;;;35.91;28.11;101879.56;4959970;28;20106;-65
2022/06/28 09:27:06;;;;;;;2.47;0.80;;;;;;;36.03;28.14;101885.81;4956216;28;20023;-65
2022/06/28 09:29:48;;;;;;;4.05;0.90;;;;;;;36.15;27.57;101884.47;4972300;28;20023;-65
2022/06/28 09:32:14;;;;;;;3.20;1.08;;;;;;;36.15;27.42;101870.53;4972389;28;20029;-65
2022/06/28 09:34:40;;;;;;;5.32;0.73;;;;;;;36.20;27.69;101876.13;4972353;28;20484;-64
2022/06/28 09:37:07;;;;;;;4.43;0.88;;;;;;;36.21;28.09;101871.38;4972428;28;20400;-65
2022/06/28 09:39:32;;;;;;;1.33;0.75;;;;;;;36.24;27.73;101869.97;4956496;28;20167;-65
2022/06/28 09:41:59;;;;;;;2.50;0.68;;;;;;;36.24;27.49;101869.97;4973605;28;20027;-66
2022/06/28 09:44:26;;;;;;;2.05;0.90;;;;;;;36.26;27.83;101867.75;4973463;28;20412;-65
2022/06/28 09:46:57;;;;;;;1.92;0.77;;;;;;;36.35;27.95;101866.09;4956128;28;20034;-65
2022/06/28 09:49:28;;;;;;;3.20;0.93;;;;;;;36.46;28.03;101856.63;4972209;28;20499;-65
2022/06/28 09:51:54;;;;;;;2.40;0.82;;;;;;;36.61;27.09;101862.25;4972655;28;20037;-64
2022/06/28 09:54:20;;;;;;;2.38;0.82;;;;;;;36.72;27.13;101855.56;4972224;28;20034;-64
2022/06/28 09:56:54;;;;;;;2.20;0.80;;;;;;;36.86;26.57;101853.91;4972281;28;20384;-65
2022/06/28 09:59:21;;;;;;;4.55;0.57;;;;;;;37.01;26.93;101853.09;4972206;28;20117;-65
2022/06/28 10:01:48;;;;;;;1.73;0.40;;;;;;;37.10;26.99;101841.06;4973642;28;20049;-65
2022/06/28 10:04:14;;;;;;;4.32;1.13;;;;;;;37.32;26.34;101843.56;4975857;28;20034;-65
2022/06/28 10:06:39;;;;;;;2.28;0.55;;;;;;;37.56;25.97;101843.78;4976097;28;20077;-65
2022/06/28 10:09:06;;;;;;;46.80;44.75;;;;;;;37.88;25.13;101827.47;4959699;28;20469;-65
2022/06/28 10:15:01;;;;;;;1999.90;999.90;;;;;;;38.34;25.80;101834.50;4975815;28;20027;-65
2022/06/28 10:17:23;;;;;;;2.78;0.63;;;;;;;40.14;24.14;101818.16;4975869;28;20523;-65
2022/06/28 10:19:50;;;;;;;1.15;0.70;;;;;;;41.23;23.12;101827.03;4975771;28;20047;-65
2022/06/28 10:22:15;;;;;;;3.65;1.20;;;;;;;41.52;22.72;101827.59;4975576;28;20029;-65
2022/06/28 10:24:52;;;;;;;1.75;0.70;;;;;;;41.03;22.95;101822.63;4975666;28;20023;-64
2022/06/28 10:27:18;;;;;;;1.27;0.73;;;;;;;40.59;23.77;101811.00;4959440;28;20034;-64
2022/06/28 10:30:00;;;;;;;4.72;1.02;;;;;;;40.24;24.02;101811.53;4976622;28;20117;-65
2022/06/28 10:32:56;;;;;;;1.65;0.80;;;;;;;40.02;24.11;101798.91;4976749;28;20027;-65
2022/06/28 10:35:34;;;;;;;1.48;1.33;;;;;;;39.93;23.73;101799.88;4976643;28;20388;-65
2022/06/28 10:38:08;;;;;;;1.33;1.05;;;;;;;39.92;23.19;101786.97;4975246;28;20054;-65
2022/06/28 10:40:45;;;;;;;3.53;1.50;;;;;;;39.96;24.43;101788.03;4976491;28;20114;-65
2022/06/28 10:43:11;;;;;;;1.80;0.90;;;;;;;40.03;23.76;101794.97;4975227;28;20058;-65
2022/06/28 10:46:04;;;;;;;1.55;1.02;;;;;;;40.20;23.94;101788.84;4975271;28;20490;-65
2022/06/28 10:48:31;;;;;;;2.30;1.98;;;;;;;40.33;23.95;101785.25;4976519;28;20039;-65
2022/06/28 10:51:01;;;;;;;1.95;1.55;;;;;;;40.41;23.09;101772.47;4975029;28;20034;-65
2022/06/28 10:53:50;;;;;;;5.95;1.70;;;;;;;40.51;23.20;101773.16;4958940;28;20042;-65
2022/06/28 10:56:17;;;;;;;2.75;1.30;;;;;;;40.74;23.40;101776.16;4976025;28;20038;-66
2022/06/28 10:58:58;;;;;;;1.08;1.05;;;;;;;40.97;23.03;101781.66;4975029;28;20030;-66
2022/06/28 11:01:38;;;;;;;0.90;0.50;;;;;;;41.14;22.81;101770.66;4974991;28;20035;-66
2022/06/28 11:04:11;;;;;;;1.02;0.50;;;;;;;41.09;23.16;101756.69;4974903;28;20089;-66
2022/06/28 11:06:47;;;;;;;2.85;0.60;;;;;;;40.48;22.99;101756.09;4975009;28;20031;-66
2022/06/28 11:09:24;;;;;;;2.70;0.60;;;;;;;40.33;23.01;101757.16;4958357;28;20047;-66
2022/06/28 11:12:08;;;;;;;1.95;0.70;;;;;;;40.67;22.09;101754.94;4974887;28;20038;-66
2022/06/28 11:14:44;;;;;;;2.63;0.80;;;;;;;40.85;22.24;101755.16;4978976;28;20111;-66
2022/06/28 11:17:15;;;;;;;1.30;0.45;;;;;;;41.06;22.66;101745.22;4981892;28;20536;-66
2022/06/28 11:19:50;;;;;;;2.42;0.60;;;;;;;41.35;22.37;101740.16;4975850;28;20500;-66
2022/06/28 11:22:20;;;;;;;0.40;0.40;;;;;;;41.58;21.89;101733.44;4974632;28;20182;-66
2022/06/28 11:24:46;;;;;;;3.45;0.70;;;;;;;41.76;21.86;101732.53;4958888;28;20074;-66
2022/06/28 11:27:20;;;;;;;1.55;0.40;;;;;;;41.92;21.97;101729.34;4974553;28;20480;-66
2022/06/28 11:30:02;;;;;;;2.88;0.30;;;;;;;41.97;21.28;101721.59;4974289;28;20035;-66
2022/06/28 11:32:30;;;;;;;2.97;0.60;;;;;;;42.05;21.74;101725.63;4975058;28;20026;-66
2022/06/28 11:35:00;;;;;;;1.73;0.60;;;;;;;42.14;21.13;101716.16;4977044;28;20035;-67